Time;durP1;ratioP1;P1;durP2;ratioP2;P2;SDS_P1;SDS_P2;PMS_P1;PMS_P2;Temp;Humidity;BMP_temperature;BMP_pressure;BME280_temperature;BME280_humidity;BME280_pressure;Samples;Min_cycle;Max_cycle;Signal;HPM_P1;HPM_P2
2022/10/07 00:01:41;;;;;;;8.90;3.35;;;13.30;99.90;;;;;;4171538;28;20056;-62
2022/10/07 00:03:42;;;;;;;8.82;2.97;;;13.30;99.90;;;;;;4171778;28;20511;-61
2022/10/07 00:05:42;;;;;;;8.40;3.45;;;13.30;99.90;;;;;;4170488;28;20036;-61
2022/10/07 00:07:43;;;;;;;7.22;2.90;;;13.30;99.90;;;;;;4180539;28;20053;-61
2022/10/07 00:09:43;;;;;;;6.35;3.03;;;13.30;99.90;;;;;;4181871;28;20030;-61
2022/10/07 00:11:44;;;;;;;5.13;2.35;;;13.20;99.90;;;;;;4182642;28;20039;-61
2022/10/07 00:13:46;;;;;;;7.50;3.40;;;13.20;99.90;;;;;;4189853;28;20040;-61
2022/10/07 00:15:47;;;;;;;15.27;2.70;;;13.10;99.90;;;;;;4170603;28;20025;-61
2022/10/07 00:17:47;;;;;;;10.13;2.90;;;13.20;99.90;;;;;;4188901;28;20510;-62
2022/10/07 00:19:48;;;;;;;6.40;2.88;;;13.10;99.90;;;;;;4184486;28;20360;-61
2022/10/07 00:21:48;;;;;;;8.38;2.90;;;13.10;99.90;;;;;;4183370;28;20053;-61
2022/10/07 00:23:49;;;;;;;5.85;2.97;;;13.10;99.90;;;;;;4184210;28;20025;-61
2022/10/07 00:25:50;;;;;;;9.70;2.88;;;13.10;99.90;;;;;;4177836;28;20365;-61
2022/10/07 00:27:51;;;;;;;9.93;3.28;;;13.10;99.90;;;;;;4189544;28;20431;-61
2022/10/07 00:29:52;;;;;;;7.10;2.50;;;13.10;99.90;;;;;;4185352;28;20028;-61
2022/10/07 00:31:53;;;;;;;5.82;2.50;;;13.10;99.90;;;;;;4185033;28;20019;-61
2022/10/07 00:33:54;;;;;;;5.97;2.70;;;13.00;99.90;;;;;;4186492;28;20043;-61
2022/10/07 00:35:55;;;;;;;12.13;3.17;;;13.10;99.90;;;;;;4186370;28;20040;-61
2022/10/07 00:37:55;;;;;;;6.88;3.03;;;13.10;99.90;;;;;;4189137;28;20036;-61
2022/10/07 00:39:56;;;;;;;9.27;2.92;;;13.10;99.90;;;;;;4180233;28;20065;-61
2022/10/07 00:41:56;;;;;;;7.18;2.72;;;13.00;99.90;;;;;;4180165;28;20037;-64
2022/10/07 00:43:58;;;;;;;6.85;2.67;;;13.00;99.90;;;;;;4181024;28;20468;-63
2022/10/07 00:46:02;;;;;;;6.63;2.50;;;13.00;99.90;;;;;;4183334;28;20051;-62
2022/10/07 00:48:03;;;;;;;8.70;3.20;;;13.10;99.90;;;;;;4178934;28;20560;-61
2022/10/07 00:50:28;;;;;;;6.80;2.95;;;13.10;99.90;;;;;;4177056;28;20029;-65
2022/10/07 00:52:32;;;;;;;6.35;2.38;;;13.10;99.90;;;;;;4147641;28;20103;-61
2022/10/07 00:54:33;;;;;;;7.65;2.30;;;13.10;99.90;;;;;;4155069;28;20064;-61
2022/10/07 00:56:33;;;;;;;6.93;2.80;;;13.00;99.90;;;;;;4151553;28;20046;-61
2022/10/07 00:58:38;;;;;;;6.68;2.80;;;13.00;99.90;;;;;;4150986;28;20033;-61
2022/10/07 01:00:39;;;;;;;6.43;3.08;;;13.10;99.90;;;;;;4147995;28;20397;-62
2022/10/07 01:02:40;;;;;;;6.07;2.55;;;13.10;99.90;;;;;;4154794;28;20040;-61
2022/10/07 01:04:42;;;;;;;6.93;2.83;;;13.10;99.90;;;;;;4146878;28;20124;-61
2022/10/07 01:06:44;;;;;;;7.28;2.90;;;13.10;99.90;;;;;;4149311;28;20084;-62
2022/10/07 01:08:48;;;;;;;7.43;2.95;;;13.10;99.90;;;;;;4153825;28;20034;-61
2022/10/07 01:10:56;;;;;;;5.65;2.20;;;13.00;99.90;;;;;;4154074;28;20494;-61
2022/10/07 01:13:05;;;;;;;7.32;2.97;;;13.00;99.90;;;;;;4150518;28;20041;-61
2022/10/07 01:15:18;;;;;;;9.35;2.83;;;13.00;99.90;;;;;;4168212;28;20504;-63
2022/10/07 01:17:28;;;;;;;7.05;2.78;;;13.00;99.90;;;;;;4149589;28;20037;-61
2022/10/07 01:19:30;;;;;;;4.95;2.42;;;13.00;99.90;;;;;;4167935;28;20030;-61
2022/10/07 01:21:51;;;;;;;6.82;3.05;;;13.00;99.90;;;;;;4151931;28;20056;-61
2022/10/07 01:24:14;;;;;;;5.70;2.50;;;12.90;99.90;;;;;;4170904;28;20067;-61
2022/10/07 01:26:21;;;;;;;;;;;13.00;99.90;;;;;;4166736;28;20032;-61
2022/10/07 01:28:32;;;;;;;13.07;2.92;;;12.90;99.90;;;;;;4169190;28;19924;-61
2022/10/07 01:30:40;;;;;;;9.10;2.78;;;12.90;99.90;;;;;;4167946;28;20464;-61
2022/10/07 01:32:52;;;;;;;8.60;2.92;;;12.90;99.90;;;;;;4170082;28;20186;-61
2022/10/07 01:34:54;;;;;;;11.05;3.15;;;12.90;99.90;;;;;;4167295;28;20040;-61
2022/10/07 01:36:58;;;;;;;9.02;2.92;;;12.90;99.90;;;;;;4170103;28;20039;-61
2022/10/07 01:39:04;;;;;;;8.65;3.13;;;12.90;99.90;;;;;;4162313;28;20441;-61
2022/10/07 01:41:13;;;;;;;11.43;3.53;;;12.90;99.90;;;;;;4167226;28;20036;-61
2022/10/07 01:43:17;;;;;;;9.18;3.53;;;12.90;99.90;;;;;;4172491;28;20033;-61
2022/10/07 01:45:21;;;;;;;5.40;2.90;;;12.80;99.90;;;;;;4165618;28;20168;-61
2022/10/07 01:47:21;;;;;;;7.82;3.28;;;12.80;99.90;;;;;;4170864;28;20390;-61
2022/10/07 01:49:22;;;;;;;11.98;3.58;;;12.80;99.90;;;;;;4170416;28;20037;-61
2022/10/07 01:51:27;;;;;;;6.28;2.58;;;12.80;99.90;;;;;;4169512;28;20539;-61
2022/10/07 01:53:49;;;;;;;5.43;2.78;;;12.80;99.90;;;;;;4169044;28;20569;-64
2022/10/07 01:56:35;;;;;;;7.90;2.42;;;12.80;99.90;;;;;;4169557;28;20108;-61
2022/10/07 01:58:39;;;;;;;6.38;2.15;;;12.70;99.90;;;;;;4089622;29;20055;-61
2022/10/07 02:00:46;;;;;;;5.63;2.53;;;12.70;99.90;;;;;;4138119;28;20512;-62
2022/10/07 02:03:17;;;;;;;8.73;2.83;;;12.70;99.90;;;;;;4170599;28;20175;-61
2022/10/07 02:05:30;;;;;;;8.52;2.70;;;12.70;99.90;;;;;;4169416;28;20102;-62
2022/10/07 02:07:38;;;;;;;9.25;3.00;;;12.60;99.90;;;;;;4151954;28;20034;-61
2022/10/07 02:09:51;;;;;;;7.45;2.65;;;12.60;99.90;;;;;;4156280;28;20038;-61
2022/10/07 02:12:03;;;;;;;9.07;2.58;;;12.60;99.90;;;;;;4166146;28;20129;-61
2022/10/07 02:14:14;;;;;;;5.45;2.53;;;12.50;99.90;;;;;;4169777;28;20051;-61
2022/10/07 02:16:18;;;;;;;4.03;2.28;;;12.50;99.90;;;;;;4163348;28;20087;-61
2022/10/07 02:18:19;;;;;;;7.10;2.38;;;12.50;99.90;;;;;;4169653;28;20037;-61
2022/10/07 02:20:24;;;;;;;8.02;2.80;;;12.50;99.90;;;;;;4165788;28;20563;-61
2022/10/07 02:22:27;;;;;;;6.07;2.50;;;12.40;99.90;;;;;;4172640;28;20041;-61
2022/10/07 02:24:31;;;;;;;5.88;2.63;;;12.40;99.90;;;;;;4160045;28;20041;-62
2022/10/07 02:26:34;;;;;;;6.40;2.53;;;12.40;99.90;;;;;;4157263;28;20100;-61
2022/10/07 02:28:39;;;;;;;9.65;2.78;;;12.40;99.90;;;;;;4161887;28;20112;-61
2022/10/07 02:30:42;;;;;;;7.53;2.60;;;12.30;99.90;;;;;;4157556;28;20036;-62
2022/10/07 02:32:55;;;;;;;6.13;2.35;;;12.30;99.90;;;;;;4161467;28;20095;-61
2022/10/07 02:34:57;;;;;;;;;;;12.30;99.90;;;;;;4176777;28;20037;-61
2022/10/07 02:37:05;;;;;;;6.13;2.08;;;12.30;99.90;;;;;;4175884;28;19923;-63
2022/10/07 02:39:06;;;;;;;5.70;2.38;;;12.30;99.90;;;;;;4176206;28;20117;-61
2022/10/07 02:41:30;;;;;;;10.20;2.50;;;12.20;99.90;;;;;;4175188;28;20044;-61
2022/10/07 02:43:30;;;;;;;7.70;2.30;;;12.20;99.90;;;;;;4175184;28;20028;-61
2022/10/07 02:45:50;;;;;;;6.47;2.30;;;12.20;99.90;;;;;;4179142;28;20037;-61
2022/10/07 02:47:58;;;;;;;4.88;2.13;;;12.20;99.90;;;;;;4167643;28;20483;-61
2022/10/07 02:50:03;;;;;;;7.90;2.20;;;12.20;99.90;;;;;;4169360;28;20032;-62
2022/10/07 02:52:10;;;;;;;6.93;2.63;;;12.10;99.90;;;;;;4174435;28;20033;-61
2022/10/07 02:54:15;;;;;;;4.93;2.10;;;12.10;99.90;;;;;;4172539;28;20395;-61
2022/10/07 02:56:20;;;;;;;6.75;2.72;;;12.10;99.90;;;;;;4168814;28;20064;-61
2022/10/07 02:58:24;;;;;;;6.47;2.63;;;12.10;99.90;;;;;;4171018;28;20034;-61
2022/10/07 03:00:29;;;;;;;5.90;2.22;;;12.00;99.90;;;;;;4172879;28;20388;-61
2022/10/07 03:03:00;;;;;;;5.70;2.30;;;12.00;99.90;;;;;;4174998;28;20057;-61
2022/10/07 03:05:01;;;;;;;4.97;2.22;;;12.00;99.90;;;;;;4168407;28;20051;-61
2022/10/07 03:07:03;;;;;;;5.78;2.33;;;11.90;99.90;;;;;;4165905;28;20057;-61
2022/10/07 03:09:03;;;;;;;7.50;2.95;;;11.90;99.90;;;;;;4167260;28;20133;-61
2022/10/07 03:11:04;;;;;;;5.40;2.13;;;11.90;99.90;;;;;;4173458;28;20056;-61
2022/10/07 03:13:04;;;;;;;6.55;2.60;;;11.90;99.90;;;;;;4178446;28;20349;-61
2022/10/07 03:15:05;;;;;;;9.38;2.83;;;11.80;99.90;;;;;;4169591;28;20041;-62
2022/10/07 03:17:06;;;;;;;9.38;2.90;;;11.80;99.90;;;;;;4180113;28;20087;-61
2022/10/07 03:19:06;;;;;;;8.32;2.80;;;11.80;99.90;;;;;;4173101;28;20071;-61
2022/10/07 03:21:07;;;;;;;7.63;2.58;;;11.70;99.90;;;;;;4171869;28;20025;-61
2022/10/07 03:23:08;;;;;;;7.53;2.42;;;11.70;99.90;;;;;;4170403;28;20086;-61
2022/10/07 03:25:10;;;;;;;7.10;2.50;;;11.60;99.90;;;;;;4170637;28;20112;-61
2022/10/07 03:27:10;;;;;;;6.97;2.40;;;11.70;99.90;;;;;;4172794;28;20033;-63
2022/10/07 03:29:12;;;;;;;7.75;2.58;;;11.60;99.90;;;;;;4171685;28;20060;-61
2022/10/07 03:31:14;;;;;;;7.13;2.78;;;11.60;99.90;;;;;;4167875;28;20037;-61
2022/10/07 03:33:17;;;;;;;9.98;2.78;;;11.60;99.90;;;;;;4153011;28;20037;-61
2022/10/07 03:35:17;;;;;;;6.97;2.70;;;11.50;99.90;;;;;;4173896;28;20025;-61
2022/10/07 03:37:18;;;;;;;6.78;2.53;;;11.50;99.90;;;;;;4172878;28;20141;-61
2022/10/07 03:39:19;;;;;;;6.93;3.05;;;11.50;99.90;;;;;;4158275;28;20053;-61
2022/10/07 03:41:21;;;;;;;6.97;2.67;;;11.50;99.90;;;;;;4168239;28;20492;-61
2022/10/07 03:43:22;;;;;;;6.72;3.10;;;11.50;99.90;;;;;;4173271;28;20427;-61
2022/10/07 03:45:23;;;;;;;5.80;2.67;;;11.50;99.90;;;;;;4167927;28;20036;-61
2022/10/07 03:47:23;;;;;;;5.70;2.33;;;11.50;99.90;;;;;;4169416;28;20388;-61
2022/10/07 03:49:24;;;;;;;7.80;2.40;;;11.50;99.90;;;;;;4171492;28;20037;-61
2022/10/07 03:51:25;;;;;;;10.32;2.60;;;11.50;99.90;;;;;;4162551;28;20041;-61
2022/10/07 03:53:28;;;;;;;6.40;2.35;;;11.40;99.90;;;;;;4167991;28;20484;-61
2022/10/07 03:55:28;;;;;;;6.63;2.35;;;11.40;99.90;;;;;;4167964;28;20037;-61
2022/10/07 03:59:49;;;;;;;8.05;2.97;;;11.50;99.90;;;;;;4167077;28;20042;-61
2022/10/07 04:01:49;;;;;;;6.97;2.42;;;11.40;99.90;;;;;;4162711;28;20080;-61
2022/10/07 04:03:50;;;;;;;4.03;1.95;;;11.50;99.90;;;;;;4176352;28;20484;-61
2022/10/07 04:05:59;;;;;;;6.97;2.88;;;11.40;99.90;;;;;;4171286;28;20436;-61
2022/10/07 04:07:59;;;;;;;6.15;2.15;;;11.40;99.90;;;;;;4171888;28;20489;-62
2022/10/07 04:10:00;;;;;;;5.80;2.40;;;11.40;99.90;;;;;;4172608;28;20087;-61
2022/10/07 04:12:00;;;;;;;7.18;3.08;;;11.40;99.90;;;;;;4169482;28;20033;-62
2022/10/07 04:14:01;;;;;;;5.88;2.70;;;11.40;99.90;;;;;;4169381;28;20562;-62
2022/10/07 04:16:08;;;;;;;5.88;2.67;;;11.40;99.90;;;;;;4169693;28;20384;-61
2022/10/07 04:18:10;;;;;;;5.47;2.50;;;11.40;99.90;;;;;;4172394;28;20026;-61
2022/10/07 04:20:11;;;;;;;5.40;2.47;;;11.40;99.90;;;;;;4147759;28;20071;-62
2022/10/07 04:22:12;;;;;;;6.63;2.67;;;11.40;99.90;;;;;;4175974;28;20045;-61
2022/10/07 04:24:12;;;;;;;6.47;2.33;;;11.30;99.90;;;;;;4147236;28;20497;-62
2022/10/07 04:26:14;;;;;;;7.30;2.83;;;11.30;99.90;;;;;;4167779;28;20034;-61
2022/10/07 04:28:17;;;;;;;10.23;2.83;;;11.20;99.90;;;;;;4169060;28;20028;-61
2022/10/07 04:30:19;;;;;;;9.18;2.67;;;11.30;99.90;;;;;;4169709;28;20034;-61
2022/10/07 04:32:21;;;;;;;9.50;2.50;;;11.20;99.90;;;;;;4171529;28;20037;-61
2022/10/07 04:34:21;;;;;;;6.38;2.30;;;11.20;99.90;;;;;;4145788;28;20562;-61
2022/10/07 04:36:22;;;;;;;10.15;3.00;;;11.10;99.90;;;;;;4164048;28;20116;-61
2022/10/07 04:38:23;;;;;;;8.63;3.40;;;11.10;99.90;;;;;;4168319;28;20030;-61
2022/10/07 04:40:24;;;;;;;9.05;2.45;;;11.10;99.90;;;;;;4162130;28;20057;-61
2022/10/07 04:44:44;;;;;;;7.50;3.03;;;11.10;99.90;;;;;;4147624;28;20058;-61
2022/10/07 04:46:44;;;;;;;8.13;3.10;;;11.10;99.90;;;;;;4151299;28;20037;-61
2022/10/07 04:48:45;;;;;;;6.85;2.70;;;11.10;99.90;;;;;;4151717;28;20046;-61
2022/10/07 04:50:46;;;;;;;7.47;2.50;;;11.10;99.90;;;;;;4146378;28;20042;-61
2022/10/07 04:52:47;;;;;;;6.80;2.50;;;11.00;99.90;;;;;;4147455;28;20040;-61
2022/10/07 04:54:47;;;;;;;11.75;3.58;;;11.00;99.90;;;;;;4149969;28;20424;-61
2022/10/07 04:56:48;;;;;;;5.60;3.00;;;11.00;99.90;;;;;;4150403;28;20033;-61
2022/10/07 04:58:49;;;;;;;13.77;3.10;;;11.00;99.90;;;;;;4151563;28;20038;-61
2022/10/07 05:00:51;;;;;;;8.32;2.65;;;10.90;99.90;;;;;;4165478;28;20041;-61
2022/10/07 05:02:51;;;;;;;9.68;3.33;;;10.90;99.90;;;;;;4173881;28;20498;-61
2022/10/07 05:04:52;;;;;;;6.75;2.92;;;10.90;99.90;;;;;;4170115;28;20041;-61
2022/10/07 05:06:53;;;;;;;7.32;2.95;;;10.90;99.90;;;;;;4168800;28;20041;-61
2022/10/07 05:08:53;;;;;;;8.77;2.83;;;10.90;99.90;;;;;;4164816;28;20025;-61
2022/10/07 05:10:58;;;;;;;8.13;2.72;;;10.90;99.90;;;;;;4167744;28;20037;-60
2022/10/07 05:13:00;;;;;;;4.88;2.47;;;10.90;99.90;;;;;;4168141;28;20029;-61
2022/10/07 05:15:01;;;;;;;8.38;3.20;;;10.90;99.90;;;;;;4166894;28;20137;-62
2022/10/07 05:17:03;;;;;;;7.82;2.50;;;10.90;99.90;;;;;;4166807;28;20495;-61
2022/10/07 05:19:03;;;;;;;8.88;2.92;;;10.90;99.90;;;;;;4148915;28;20124;-61
2022/10/07 05:21:06;;;;;;;12.75;3.72;;;10.90;99.90;;;;;;4164864;28;20029;-60
2022/10/07 05:23:06;;;;;;;5.85;2.78;;;10.90;99.90;;;;;;4166921;28;20038;-61
2022/10/07 05:25:07;;;;;;;7.65;2.55;;;10.90;99.90;;;;;;4173400;28;20611;-62
2022/10/07 05:27:08;;;;;;;9.68;3.33;;;10.90;99.90;;;;;;4160696;28;20554;-61
2022/10/07 05:29:09;;;;;;;11.27;3.65;;;10.90;99.90;;;;;;4167437;28;20041;-61
2022/10/07 05:31:13;;;;;;;7.43;3.05;;;10.90;99.90;;;;;;4167202;28;20046;-61
2022/10/07 05:33:15;;;;;;;7.45;2.80;;;10.90;99.90;;;;;;4163830;28;20427;-62
2022/10/07 05:35:16;;;;;;;9.57;2.83;;;10.90;99.90;;;;;;4170373;28;20033;-61
2022/10/07 05:37:16;;;;;;;6.97;3.10;;;10.90;99.90;;;;;;4171795;28;20029;-62
2022/10/07 05:39:17;;;;;;;4.25;2.35;;;10.90;99.90;;;;;;4159969;28;20057;-64
2022/10/07 05:41:18;;;;;;;7.78;3.42;;;10.90;99.90;;;;;;4183223;28;20024;-63
2022/10/07 05:43:19;;;;;;;8.88;3.28;;;10.80;99.90;;;;;;4185606;28;20393;-63
2022/10/07 05:45:19;;;;;;;10.40;3.70;;;10.80;99.90;;;;;;4161977;28;20038;-63
2022/10/07 05:47:20;;;;;;;9.63;3.30;;;10.80;99.90;;;;;;4183776;28;20037;-64
2022/10/07 05:49:20;;;;;;;8.77;3.58;;;10.80;99.90;;;;;;4178270;28;20132;-63
2022/10/07 05:51:23;;;;;;;8.55;3.08;;;10.80;99.90;;;;;;4169819;28;20037;-64
2022/10/07 05:53:25;;;;;;;8.60;3.38;;;10.70;99.90;;;;;;4181986;28;20045;-64
2022/10/07 05:55:26;;;;;;;7.38;3.08;;;10.70;99.90;;;;;;4184046;28;20099;-64
2022/10/07 05:57:27;;;;;;;10.85;3.63;;;10.70;99.90;;;;;;4189887;28;20107;-64
2022/10/07 05:59:28;;;;;;;7.90;2.97;;;10.70;99.90;;;;;;4172171;28;20489;-63
2022/10/07 06:01:29;;;;;;;7.35;3.03;;;10.70;99.90;;;;;;4181877;28;20496;-64
2022/10/07 06:03:29;;;;;;;9.15;3.72;;;10.70;99.90;;;;;;4186400;28;20029;-64
2022/10/07 06:05:31;;;;;;;11.88;3.60;;;10.70;99.90;;;;;;4188099;28;20033;-64
2022/10/07 06:07:31;;;;;;;11.60;3.63;;;10.70;99.90;;;;;;4174065;28;20041;-64
2022/10/07 06:14:11;;;;;;;7.30;2.90;;;10.70;99.90;;;;;;4158168;28;20046;-63
2022/10/07 06:16:11;;;;;;;10.73;3.45;;;10.70;99.90;;;;;;4168486;28;20030;-64
2022/10/07 06:18:12;;;;;;;7.50;3.20;;;10.60;99.90;;;;;;4170532;28;20492;-64
2022/10/07 06:20:13;;;;;;;11.98;3.78;;;10.60;99.90;;;;;;4166809;28;20113;-64
2022/10/07 06:22:14;;;;;;;7.18;3.13;;;10.60;99.90;;;;;;4160668;28;20022;-67
2022/10/07 06:24:15;;;;;;;9.85;3.38;;;10.60;99.90;;;;;;4135069;28;20084;-64
2022/10/07 06:26:15;;;;;;;10.30;4.03;;;10.60;99.90;;;;;;4153708;28;20058;-63
2022/10/07 06:28:16;;;;;;;8.20;3.40;;;10.60;99.90;;;;;;4146713;28;20045;-64
2022/10/07 06:30:16;;;;;;;10.88;3.15;;;10.60;99.90;;;;;;4160949;28;20121;-63
2022/10/07 06:32:17;;;;;;;7.90;3.10;;;10.60;99.90;;;;;;4171740;28;20449;-64
2022/10/07 06:34:18;;;;;;;10.32;3.33;;;10.60;99.90;;;;;;4165432;28;20034;-64
2022/10/07 06:36:19;;;;;;;11.40;3.50;;;10.60;99.90;;;;;;4165959;28;20033;-64
2022/10/07 06:38:19;;;;;;;9.70;3.20;;;10.60;99.90;;;;;;4168136;28;20096;-63
2022/10/07 06:40:20;;;;;;;9.27;3.50;;;10.70;99.90;;;;;;4161593;28;20025;-64
2022/10/07 06:42:21;;;;;;;10.45;4.20;;;10.70;99.90;;;;;;4168639;28;20578;-64
2022/10/07 06:44:21;;;;;;;12.57;3.92;;;10.70;99.90;;;;;;4166028;28;20037;-64
2022/10/07 06:46:22;;;;;;;6.82;3.53;;;10.70;99.90;;;;;;4157501;28;21047;-64
2022/10/07 06:48:27;;;;;;;16.88;4.32;;;10.70;99.90;;;;;;4168047;28;20091;-63
2022/10/07 06:50:27;;;;;;;9.07;3.70;;;10.70;99.90;;;;;;4166283;28;20037;-64
2022/10/07 06:52:28;;;;;;;9.45;3.38;;;10.70;99.90;;;;;;4171515;28;20392;-63
2022/10/07 06:54:29;;;;;;;11.40;4.00;;;10.80;99.90;;;;;;4164411;28;20033;-64
2022/10/07 06:56:29;;;;;;;9.65;3.53;;;10.80;99.90;;;;;;4163834;28;20032;-64
2022/10/07 06:58:30;;;;;;;18.50;4.20;;;10.80;99.90;;;;;;4167498;28;20427;-63
2022/10/07 07:00:31;;;;;;;11.07;3.25;;;10.80;99.90;;;;;;4160961;28;20451;-64
2022/10/07 07:02:32;;;;;;;14.30;3.60;;;10.90;99.90;;;;;;4165715;28;20029;-65
2022/10/07 07:04:33;;;;;;;8.20;3.50;;;10.90;99.90;;;;;;4164828;28;20056;-64
2022/10/07 07:06:37;;;;;;;9.40;3.08;;;11.00;99.90;;;;;;4165234;28;20042;-64
2022/10/07 07:08:40;;;;;;;8.02;3.28;;;11.00;99.90;;;;;;4174079;28;20043;-64
2022/10/07 07:10:42;;;;;;;11.82;3.85;;;11.10;99.90;;;;;;4151393;28;20140;-63
2022/10/07 07:12:42;;;;;;;10.35;3.42;;;11.10;99.90;;;;;;4173214;28;20036;-64
2022/10/07 07:14:43;;;;;;;9.57;3.30;;;11.20;99.90;;;;;;4168712;28;20411;-64
2022/10/07 07:16:44;;;;;;;9.57;3.60;;;11.20;99.90;;;;;;4167172;28;20163;-64
2022/10/07 07:18:50;;;;;;;7.25;3.25;;;11.30;99.90;;;;;;4168050;28;20053;-64
2022/10/07 07:20:51;;;;;;;7.88;3.08;;;11.30;99.90;;;;;;4168178;28;20033;-64
2022/10/07 07:22:51;;;;;;;8.75;3.67;;;11.30;99.90;;;;;;4162666;28;20401;-64
2022/10/07 07:24:52;;;;;;;10.95;3.85;;;11.40;99.90;;;;;;4168931;28;20549;-64
2022/10/07 07:26:53;;;;;;;10.43;3.47;;;11.40;99.90;;;;;;4166561;28;20417;-64
2022/10/07 07:29:01;;;;;;;8.80;2.85;;;11.60;99.90;;;;;;4168432;28;20057;-64
2022/10/07 07:31:10;;;;;;;11.85;3.20;;;11.60;99.90;;;;;;4167851;28;20033;-65
2022/10/07 07:33:12;;;;;;;9.45;3.83;;;11.80;99.90;;;;;;4164866;28;20481;-64
2022/10/07 07:35:13;;;;;;;8.25;3.35;;;11.90;99.90;;;;;;4176573;28;20045;-64
2022/10/07 07:37:16;;;;;;;9.30;3.47;;;12.10;99.90;;;;;;4171845;28;20041;-64
2022/10/07 07:39:18;;;;;;;12.32;3.80;;;12.30;99.90;;;;;;4172636;28;20519;-64
2022/10/07 07:41:24;;;;;;;8.17;3.07;;;12.60;99.90;;;;;;4171074;28;20404;-64
2022/10/07 07:43:25;;;;;;;7.00;3.17;;;12.90;99.90;;;;;;4172119;28;20272;-64
2022/10/07 07:45:25;;;;;;;6.57;3.15;;;13.20;99.90;;;;;;4170830;28;20072;-64
2022/10/07 07:47:26;;;;;;;6.57;3.17;;;13.50;99.90;;;;;;4168058;28;20473;-63
2022/10/07 07:49:30;;;;;;;11.18;3.63;;;13.70;99.90;;;;;;4164995;28;20037;-64
2022/10/07 07:51:32;;;;;;;8.05;2.70;;;14.00;99.90;;;;;;4149103;28;20512;-64
2022/10/07 07:53:33;;;;;;;10.00;3.10;;;14.40;99.90;;;;;;4168036;28;20480;-65
2022/10/07 07:55:33;;;;;;;9.68;3.00;;;14.60;99.90;;;;;;4166779;28;20033;-64
2022/10/07 07:57:34;;;;;;;9.30;2.95;;;14.80;99.90;;;;;;4166755;28;20113;-65
2022/10/07 07:59:36;;;;;;;8.63;2.90;;;15.20;99.90;;;;;;4164335;28;20046;-65
2022/10/07 08:01:37;;;;;;;10.03;3.23;;;15.50;99.90;;;;;;4151049;28;20124;-64
2022/10/07 08:03:41;;;;;;;11.43;2.88;;;15.70;99.90;;;;;;4154589;28;20352;-65
2022/10/07 08:05:42;;;;;;;12.02;2.78;;;15.90;99.90;;;;;;4167403;28;20124;-65
2022/10/07 08:07:44;;;;;;;9.15;2.67;;;16.20;99.90;;;;;;4168004;28;20439;-65
2022/10/07 08:09:44;;;;;;;8.88;2.67;;;16.40;99.90;;;;;;4162078;28;20042;-65
2022/10/07 08:11:45;;;;;;;7.30;2.35;;;16.60;99.90;;;;;;4150123;28;20491;-65
2022/10/07 08:13:46;;;;;;;8.35;2.60;;;16.90;99.90;;;;;;4167477;28;20052;-65
2022/10/07 08:15:47;;;;;;;9.45;2.70;;;17.10;99.90;;;;;;4149425;28;20029;-65
2022/10/07 08:17:49;;;;;;;8.75;2.60;;;17.20;99.90;;;;;;4148420;28;20029;-66
2022/10/07 08:19:49;;;;;;;7.35;2.80;;;17.20;99.90;;;;;;4142839;28;20401;-65
2022/10/07 08:21:51;;;;;;;9.80;2.92;;;17.30;99.90;;;;;;4150886;28;20030;-66
2022/10/07 08:23:57;;;;;;;7.47;1.92;;;17.30;99.90;;;;;;4161977;28;20396;-65
2022/10/07 08:25:58;;;;;;;12.27;2.80;;;17.30;99.90;;;;;;4165198;28;20045;-65
2022/10/07 08:28:00;;;;;;;6.65;2.40;;;17.50;99.90;;;;;;4173985;28;20036;-65
2022/10/07 08:30:01;;;;;;;6.30;2.35;;;17.40;99.90;;;;;;4160566;28;20042;-65
2022/10/07 08:32:01;;;;;;;5.95;2.35;;;17.50;99.90;;;;;;4164012;28;20029;-65
2022/10/07 08:34:03;;;;;;;5.65;1.98;;;17.50;99.90;;;;;;4169871;28;20048;-65
2022/10/07 08:36:06;;;;;;;5.75;2.22;;;17.60;99.90;;;;;;4165306;28;20068;-65
2022/10/07 08:38:07;;;;;;;4.30;1.92;;;17.60;99.90;;;;;;4169272;28;20040;-65
2022/10/07 08:40:14;;;;;;;7.80;2.65;;;17.60;99.90;;;;;;4170258;28;20484;-69
2022/10/07 08:42:27;;;;;;;12.00;3.28;;;17.60;99.90;;;;;;4163393;28;20415;-69
2022/10/07 08:44:35;;;;;;;7.50;2.33;;;17.60;99.90;;;;;;4171319;28;20511;-69
2022/10/07 08:46:37;;;;;;;10.02;3.08;;;17.60;99.90;;;;;;4166490;28;20040;-69
2022/10/07 08:48:39;;;;;;;6.95;2.10;;;17.60;99.90;;;;;;4171094;28;20038;-69
2022/10/07 08:50:57;;;;;;;9.90;2.72;;;17.60;99.90;;;;;;4170592;28;20037;-69
2022/10/07 08:53:03;;;;;;;12.13;3.20;;;17.60;99.90;;;;;;4166493;28;20040;-69
2022/10/07 08:55:17;;;;;;;8.82;2.65;;;17.60;99.90;;;;;;4169121;28;20112;-69
2022/10/07 08:57:33;;;;;;;7.70;2.70;;;17.60;99.90;;;;;;4172078;28;20531;-69
2022/10/07 08:59:37;;;;;;;6.95;2.30;;;17.70;99.90;;;;;;4163843;28;20520;-70
2022/10/07 09:01:55;;;;;;;7.40;2.33;;;17.70;99.90;;;;;;4171404;28;20112;-70
2022/10/07 09:04:07;;;;;;;7.20;2.60;;;17.80;99.90;;;;;;4166836;28;20032;-69
2022/10/07 09:06:14;;;;;;;8.40;2.38;;;17.90;99.90;;;;;;4151340;28;20042;-70
2022/10/07 09:08:27;;;;;;;6.93;2.10;;;17.80;99.90;;;;;;4161332;28;20032;-69
2022/10/07 09:10:39;;;;;;;11.52;2.42;;;17.90;99.90;;;;;;4161651;28;20033;-70
2022/10/07 09:12:42;;;;;;;8.32;2.72;;;17.90;99.90;;;;;;4154399;28;20033;-70
2022/10/07 09:14:46;;;;;;;6.80;2.35;;;17.90;99.90;;;;;;4160564;28;20061;-70
2022/10/07 09:16:50;;;;;;;7.65;2.67;;;17.90;99.90;;;;;;4169729;28;20036;-70
2022/10/07 09:18:55;;;;;;;9.52;2.42;;;17.90;99.90;;;;;;4162594;28;20088;-70
2022/10/07 09:20:56;;;;;;;9.00;2.58;;;18.00;99.90;;;;;;4163504;28;20030;-70
2022/10/07 09:22:57;;;;;;;10.57;2.70;;;18.00;99.90;;;;;;4170355;28;20056;-70
2022/10/07 09:25:11;;;;;;;8.77;2.85;;;17.90;99.90;;;;;;4171776;28;20037;-69
2022/10/07 09:27:15;;;;;;;8.63;2.42;;;18.00;99.90;;;;;;4163240;28;20061;-69
2022/10/07 09:29:20;;;;;;;5.47;2.03;;;18.10;99.90;;;;;;4163118;28;20048;-69
2022/10/07 09:31:23;;;;;;;10.38;2.70;;;18.10;99.90;;;;;;4163520;28;20044;-70
2022/10/07 09:33:24;;;;;;;;;;;18.20;99.90;;;;;;4164857;28;20141;-70
2022/10/07 09:35:28;;;;;;;7.72;2.35;;;18.10;99.90;;;;;;4164638;28;19913;-70
2022/10/07 09:37:29;;;;;;;8.70;2.45;;;18.10;99.90;;;;;;4164174;28;20062;-71
2022/10/07 09:39:29;;;;;;;8.48;2.40;;;18.20;99.90;;;;;;4161541;28;20133;-70
2022/10/07 09:41:37;;;;;;;7.10;2.50;;;18.30;99.90;;;;;;4163177;28;20037;-70
2022/10/07 09:43:53;;;;;;;9.13;2.25;;;18.30;99.90;;;;;;4167248;28;20029;-70
2022/10/07 09:45:57;;;;;;;8.88;2.47;;;18.40;99.90;;;;;;4163076;28;20041;-70
2022/10/07 09:48:06;;;;;;;10.00;2.28;;;18.40;99.90;;;;;;4165780;28;20500;-71
2022/10/07 09:50:29;;;;;;;9.52;2.20;;;18.50;99.90;;;;;;4161356;28;20048;-70
2022/10/07 09:52:31;;;;;;;5.38;2.10;;;18.50;99.90;;;;;;4167553;28;20238;-69
2022/10/07 09:54:34;;;;;;;7.10;2.25;;;18.60;99.90;;;;;;4162679;28;20030;-69
2022/10/07 09:56:38;;;;;;;7.35;2.38;;;18.60;99.90;;;;;;4165008;28;20032;-69
2022/10/07 09:58:38;;;;;;;6.95;1.95;;;18.70;99.90;;;;;;4164339;28;20029;-68
2022/10/07 10:00:45;;;;;;;6.10;2.00;;;18.70;99.90;;;;;;4161993;28;20063;-70
2022/10/07 10:02:56;;;;;;;7.07;1.70;;;18.70;99.90;;;;;;4168224;28;20053;-70
2022/10/07 10:04:56;;;;;;;5.07;1.60;;;18.80;99.90;;;;;;4166021;28;20037;-69
2022/10/07 10:07:02;;;;;;;8.73;2.03;;;18.80;99.90;;;;;;4165069;28;20033;-70
2022/10/07 10:09:03;;;;;;;8.75;2.30;;;18.80;99.90;;;;;;4164623;28;20040;-70
2022/10/07 10:11:27;;;;;;;6.65;2.00;;;18.80;99.90;;;;;;4169683;28;20056;-70
2022/10/07 10:13:31;;;;;;;10.10;1.95;;;18.90;99.90;;;;;;4150923;28;20033;-70
2022/10/07 10:15:34;;;;;;;6.30;2.10;;;18.90;99.90;;;;;;4168897;28;20032;-69
2022/10/07 10:17:35;;;;;;;8.55;2.63;;;18.90;99.90;;;;;;4166474;28;20036;-70
2022/10/07 10:19:35;;;;;;;9.60;2.40;;;18.90;99.90;;;;;;4169444;28;20041;-70
2022/10/07 10:21:40;;;;;;;8.82;2.30;;;18.90;99.90;;;;;;4174727;28;20037;-69
2022/10/07 10:23:46;;;;;;;8.75;2.70;;;18.90;99.90;;;;;;4170808;28;20033;-70
2022/10/07 10:26:24;;;;;;;6.32;1.92;;;18.90;99.90;;;;;;4161004;28;20052;-70
2022/10/07 10:29:02;;;;;;;8.13;1.90;;;19.00;99.90;;;;;;4153978;28;20451;-70
2022/10/07 10:31:16;;;;;;;9.82;2.00;;;19.00;99.90;;;;;;4162010;28;20034;-70
2022/10/07 10:33:26;;;;;;;6.55;1.85;;;19.10;99.90;;;;;;4163166;28;20505;-69
2022/10/07 10:35:29;;;;;;;9.52;1.70;;;19.10;99.90;;;;;;4160973;28;20496;-70
2022/10/07 10:37:40;;;;;;;7.05;1.88;;;19.00;99.00;;;;;;4163034;28;20046;-69
2022/10/07 10:40:22;;;;;;;7.78;1.80;;;19.10;99.90;;;;;;4160959;28;20041;-69
2022/10/07 10:42:34;;;;;;;8.52;2.28;;;19.20;99.90;;;;;;4169416;28;20389;-70
2022/10/07 10:44:51;;;;;;;8.48;2.05;;;19.20;99.90;;;;;;4171725;28;20034;-71
2022/10/07 10:47:16;;;;;;;11.27;2.40;;;19.10;99.50;;;;;;4174275;28;20480;-71
2022/10/07 10:49:36;;;;;;;6.43;2.25;;;19.10;99.90;;;;;;4170665;28;20037;-69
2022/10/07 10:51:45;;;;;;;8.48;2.00;;;19.10;99.90;;;;;;4168629;28;20087;-69
2022/10/07 10:53:55;;;;;;;11.43;2.30;;;19.10;99.90;;;;;;4172783;28;20393;-71
2022/10/07 10:56:15;;;;;;;12.93;3.05;;;19.10;99.40;;;;;;4163193;28;20116;-71